sensor_id;sensor_type;location;lat;lon;timestamp;P1;durP1;ratioP1;P2;durP2;ratioP2
25525;SDS011;13424;48.424;11.258;2022-08-06T00:00:10;10.75;;;8.57;;
25525;SDS011;13424;48.424;11.258;2022-08-06T00:02:37;12.73;;;8.60;;
25525;SDS011;13424;48.424;11.258;2022-08-06T00:05:04;8.95;;;8.02;;
25525;SDS011;13424;48.424;11.258;2022-08-06T00:07:31;9.18;;;7.50;;
25525;SDS011;13424;48.424;11.258;2022-08-06T00:13:35;8.30;;;7.50;;
25525;SDS011;13424;48.424;11.258;2022-08-06T00:16:01;10.93;;;8.00;;
25525;SDS011;13424;48.424;11.258;2022-08-06T00:18:27;9.15;;;7.15;;
25525;SDS011;13424;48.424;11.258;2022-08-06T00:21:11;7.63;;;6.47;;
25525;SDS011;13424;48.424;11.258;2022-08-06T00:23:37;6.63;;;6.00;;
25525;SDS011;13424;48.424;11.258;2022-08-06T00:26:03;7.65;;;6.00;;
25525;SDS011;13424;48.424;11.258;2022-08-06T00:28:29;8.65;;;5.90;;
25525;SDS011;13424;48.424;11.258;2022-08-06T00:30:57;7.30;;;5.90;;
25525;SDS011;13424;48.424;11.258;2022-08-06T00:33:28;8.38;;;5.97;;
25525;SDS011;13424;48.424;11.258;2022-08-06T00:35:54;8.93;;;6.47;;
25525;SDS011;13424;48.424;11.258;2022-08-06T00:38:20;8.23;;;6.93;;
25525;SDS011;13424;48.424;11.258;2022-08-06T00:40:48;9.02;;;7.00;;
25525;SDS011;13424;48.424;11.258;2022-08-06T00:43:17;8.00;;;6.57;;
25525;SDS011;13424;48.424;11.258;2022-08-06T00:45:44;7.65;;;6.85;;
25525;SDS011;13424;48.424;11.258;2022-08-06T00:48:11;7.75;;;7.00;;
25525;SDS011;13424;48.424;11.258;2022-08-06T00:50:39;14.50;;;8.48;;
25525;SDS011;13424;48.424;11.258;2022-08-06T00:53:05;9.38;;;7.90;;
25525;SDS011;13424;48.424;11.258;2022-08-06T00:55:31;11.30;;;8.48;;
25525;SDS011;13424;48.424;11.258;2022-08-06T00:57:58;10.10;;;8.32;;
25525;SDS011;13424;48.424;11.258;2022-08-06T01:00:25;12.35;;;9.52;;
25525;SDS011;13424;48.424;11.258;2022-08-06T01:02:51;12.32;;;9.77;;
25525;SDS011;13424;48.424;11.258;2022-08-06T01:05:17;17.25;;;11.15;;
25525;SDS011;13424;48.424;11.258;2022-08-06T01:07:43;14.48;;;11.52;;
25525;SDS011;13424;48.424;11.258;2022-08-06T01:10:09;13.45;;;10.98;;
25525;SDS011;13424;48.424;11.258;2022-08-06T01:12:36;18.10;;;11.50;;
25525;SDS011;13424;48.424;11.258;2022-08-06T01:28:33;26.77;;;18.83;;
25525;SDS011;13424;48.424;11.258;2022-08-06T01:31:09;26.45;;;19.02;;
25525;SDS011;13424;48.424;11.258;2022-08-06T01:33:54;28.70;;;20.33;;
25525;SDS011;13424;48.424;11.258;2022-08-06T01:36:39;27.50;;;19.45;;
25525;SDS011;13424;48.424;11.258;2022-08-06T01:39:18;26.33;;;19.33;;
25525;SDS011;13424;48.424;11.258;2022-08-06T01:41:49;28.02;;;20.83;;
25525;SDS011;13424;48.424;11.258;2022-08-06T01:44:20;28.67;;;21.38;;
25525;SDS011;13424;48.424;11.258;2022-08-06T01:46:58;30.70;;;19.70;;
25525;SDS011;13424;48.424;11.258;2022-08-06T01:49:29;31.23;;;21.75;;
25525;SDS011;13424;48.424;11.258;2022-08-06T01:51:59;30.98;;;20.42;;
25525;SDS011;13424;48.424;11.258;2022-08-06T01:54:28;30.80;;;19.27;;
25525;SDS011;13424;48.424;11.258;2022-08-06T01:56:57;31.65;;;20.73;;
25525;SDS011;13424;48.424;11.258;2022-08-06T02:03:35;22.27;;;14.85;;
25525;SDS011;13424;48.424;11.258;2022-08-06T02:06:15;22.20;;;13.93;;
25525;SDS011;13424;48.424;11.258;2022-08-06T02:08:56;21.02;;;14.38;;
25525;SDS011;13424;48.424;11.258;2022-08-06T02:13:52;21.92;;;15.15;;
25525;SDS011;13424;48.424;11.258;2022-08-06T02:16:19;21.02;;;14.25;;
25525;SDS011;13424;48.424;11.258;2022-08-06T02:18:47;20.67;;;14.10;;
25525;SDS011;13424;48.424;11.258;2022-08-06T02:21:18;19.13;;;13.18;;
25525;SDS011;13424;48.424;11.258;2022-08-06T02:23:46;18.27;;;11.95;;
25525;SDS011;13424;48.424;11.258;2022-08-06T02:26:14;15.77;;;11.73;;
25525;SDS011;13424;48.424;11.258;2022-08-06T02:28:42;19.60;;;12.80;;
25525;SDS011;13424;48.424;11.258;2022-08-06T02:31:11;15.52;;;10.65;;
25525;SDS011;13424;48.424;11.258;2022-08-06T02:33:37;13.50;;;11.10;;
25525;SDS011;13424;48.424;11.258;2022-08-06T02:36:13;18.30;;;12.18;;
25525;SDS011;13424;48.424;11.258;2022-08-06T02:39:07;14.20;;;10.90;;
25525;SDS011;13424;48.424;11.258;2022-08-06T02:50:21;18.48;;;13.75;;
25525;SDS011;13424;48.424;11.258;2022-08-06T02:53:05;19.30;;;14.18;;
25525;SDS011;13424;48.424;11.258;2022-08-06T02:55:36;20.17;;;15.25;;
25525;SDS011;13424;48.424;11.258;2022-08-06T03:01:28;18.75;;;15.27;;
25525;SDS011;13424;48.424;11.258;2022-08-06T03:03:59;19.98;;;14.55;;
25525;SDS011;13424;48.424;11.258;2022-08-06T03:06:29;22.02;;;15.20;;
25525;SDS011;13424;48.424;11.258;2022-08-06T03:09:00;20.70;;;14.45;;
25525;SDS011;13424;48.424;11.258;2022-08-06T03:11:31;18.25;;;14.27;;
25525;SDS011;13424;48.424;11.258;2022-08-06T03:14:01;17.35;;;13.32;;
25525;SDS011;13424;48.424;11.258;2022-08-06T03:17:01;20.58;;;14.98;;
25525;SDS011;13424;48.424;11.258;2022-08-06T03:19:28;18.55;;;13.65;;
25525;SDS011;13424;48.424;11.258;2022-08-06T03:21:56;18.63;;;14.18;;
25525;SDS011;13424;48.424;11.258;2022-08-06T03:24:24;18.90;;;12.82;;
25525;SDS011;13424;48.424;11.258;2022-08-06T03:26:54;14.70;;;12.52;;
25525;SDS011;13424;48.424;11.258;2022-08-06T03:29:24;16.25;;;13.15;;
25525;SDS011;13424;48.424;11.258;2022-08-06T03:31:52;15.40;;;12.15;;
25525;SDS011;13424;48.424;11.258;2022-08-06T03:34:19;16.77;;;11.85;;
25525;SDS011;13424;48.424;11.258;2022-08-06T03:36:46;15.07;;;11.30;;
25525;SDS011;13424;48.424;11.258;2022-08-06T03:39:13;12.43;;;10.35;;
25525;SDS011;13424;48.424;11.258;2022-08-06T03:41:40;13.48;;;9.85;;
25525;SDS011;13424;48.424;11.258;2022-08-06T03:48:13;12.63;;;9.85;;
25525;SDS011;13424;48.424;11.258;2022-08-06T03:50:44;15.60;;;11.88;;
25525;SDS011;13424;48.424;11.258;2022-08-06T03:53:22;15.85;;;12.25;;
25525;SDS011;13424;48.424;11.258;2022-08-06T03:55:54;15.38;;;11.93;;
25525;SDS011;13424;48.424;11.258;2022-08-06T03:58:24;17.80;;;13.40;;
25525;SDS011;13424;48.424;11.258;2022-08-06T04:01:12;14.82;;;11.93;;
25525;SDS011;13424;48.424;11.258;2022-08-06T04:03:45;13.40;;;11.95;;
25525;SDS011;13424;48.424;11.258;2022-08-06T04:06:12;11.10;;;10.00;;
25525;SDS011;13424;48.424;11.258;2022-08-06T04:08:41;13.43;;;10.48;;
25525;SDS011;13424;48.424;11.258;2022-08-06T04:11:07;9.68;;;8.68;;
25525;SDS011;13424;48.424;11.258;2022-08-06T04:13:36;12.50;;;8.45;;
25525;SDS011;13424;48.424;11.258;2022-08-06T04:16:04;11.07;;;8.27;;
25525;SDS011;13424;48.424;11.258;2022-08-06T04:18:38;13.32;;;8.10;;
25525;SDS011;13424;48.424;11.258;2022-08-06T04:21:12;9.23;;;7.25;;
25525;SDS011;13424;48.424;11.258;2022-08-06T04:23:43;7.25;;;6.07;;
25525;SDS011;13424;48.424;11.258;2022-08-06T04:26:09;8.60;;;5.93;;
25525;SDS011;13424;48.424;11.258;2022-08-06T04:28:42;9.02;;;6.40;;
25525;SDS011;13424;48.424;11.258;2022-08-06T04:31:11;8.00;;;5.82;;
25525;SDS011;13424;48.424;11.258;2022-08-06T04:33:39;8.02;;;6.10;;
25525;SDS011;13424;48.424;11.258;2022-08-06T04:36:06;6.20;;;5.50;;
25525;SDS011;13424;48.424;11.258;2022-08-06T04:38:34;8.63;;;6.05;;
25525;SDS011;13424;48.424;11.258;2022-08-06T04:41:00;7.38;;;5.35;;
25525;SDS011;13424;48.424;11.258;2022-08-06T04:43:27;8.07;;;5.88;;
25525;SDS011;13424;48.424;11.258;2022-08-06T04:45:55;8.38;;;5.40;;
25525;SDS011;13424;48.424;11.258;2022-08-06T04:48:21;7.72;;;5.60;;
25525;SDS011;13424;48.424;11.258;2022-08-06T04:50:48;6.82;;;5.50;;
25525;SDS011;13424;48.424;11.258;2022-08-06T04:53:17;6.00;;;5.40;;
25525;SDS011;13424;48.424;11.258;2022-08-06T04:55:45;8.65;;;4.88;;
25525;SDS011;13424;48.424;11.258;2022-08-06T04:58:14;8.90;;;4.93;;
25525;SDS011;13424;48.424;11.258;2022-08-06T05:00:46;6.03;;;4.97;;
25525;SDS011;13424;48.424;11.258;2022-08-06T05:03:13;6.53;;;5.07;;
25525;SDS011;13424;48.424;11.258;2022-08-06T05:09:03;6.50;;;5.88;;
25525;SDS011;13424;48.424;11.258;2022-08-06T05:11:37;5.65;;;5.05;;
25525;SDS011;13424;48.424;11.258;2022-08-06T05:14:13;9.48;;;5.57;;
25525;SDS011;13424;48.424;11.258;2022-08-06T05:16:45;5.88;;;5.28;;
25525;SDS011;13424;48.424;11.258;2022-08-06T05:19:16;7.93;;;5.05;;
25525;SDS011;13424;48.424;11.258;2022-08-06T05:21:50;7.70;;;5.13;;
25525;SDS011;13424;48.424;11.258;2022-08-06T05:24:18;7.82;;;5.45;;
25525;SDS011;13424;48.424;11.258;2022-08-06T05:26:44;6.35;;;5.38;;
25525;SDS011;13424;48.424;11.258;2022-08-06T05:29:11;6.18;;;5.55;;
25525;SDS011;13424;48.424;11.258;2022-08-06T05:31:38;6.68;;;5.40;;
25525;SDS011;13424;48.424;11.258;2022-08-06T05:34:11;12.23;;;5.78;;
25525;SDS011;13424;48.424;11.258;2022-08-06T05:36:37;7.30;;;5.78;;
25525;SDS011;13424;48.424;11.258;2022-08-06T05:39:04;7.03;;;5.82;;
25525;SDS011;13424;48.424;11.258;2022-08-06T05:41:31;6.53;;;5.90;;
25525;SDS011;13424;48.424;11.258;2022-08-06T05:44:00;9.35;;;6.45;;
25525;SDS011;13424;48.424;11.258;2022-08-06T05:46:33;8.38;;;6.68;;
25525;SDS011;13424;48.424;11.258;2022-08-06T05:49:09;13.02;;;7.13;;
25525;SDS011;13424;48.424;11.258;2022-08-06T05:51:52;9.20;;;6.88;;
25525;SDS011;13424;48.424;11.258;2022-08-06T06:00:15;9.30;;;6.90;;
25525;SDS011;13424;48.424;11.258;2022-08-06T06:02:47;9.05;;;6.45;;
25525;SDS011;13424;48.424;11.258;2022-08-06T06:05:16;9.80;;;7.22;;
25525;SDS011;13424;48.424;11.258;2022-08-06T06:07:43;7.55;;;6.68;;
25525;SDS011;13424;48.424;11.258;2022-08-06T06:10:10;8.85;;;6.35;;
25525;SDS011;13424;48.424;11.258;2022-08-06T06:12:38;7.95;;;6.35;;
25525;SDS011;13424;48.424;11.258;2022-08-06T06:15:10;10.02;;;7.50;;
25525;SDS011;13424;48.424;11.258;2022-08-06T06:23:54;13.38;;;10.18;;
25525;SDS011;13424;48.424;11.258;2022-08-06T06:26:40;14.20;;;9.10;;
25525;SDS011;13424;48.424;11.258;2022-08-06T06:29:40;10.63;;;9.52;;
25525;SDS011;13424;48.424;11.258;2022-08-06T06:32:51;18.17;;;12.00;;
25525;SDS011;13424;48.424;11.258;2022-08-06T06:35:48;15.63;;;11.88;;
25525;SDS011;13424;48.424;11.258;2022-08-06T06:41:38;15.93;;;12.50;;
25525;SDS011;13424;48.424;11.258;2022-08-06T06:44:34;16.60;;;12.45;;
25525;SDS011;13424;48.424;11.258;2022-08-06T06:50:30;15.23;;;12.60;;
25525;SDS011;13424;48.424;11.258;2022-08-06T06:53:00;17.08;;;13.98;;
25525;SDS011;13424;48.424;11.258;2022-08-06T06:55:45;14.40;;;11.70;;
25525;SDS011;13424;48.424;11.258;2022-08-06T07:01:05;19.58;;;9.93;;
25525;SDS011;13424;48.424;11.258;2022-08-06T07:03:34;11.82;;;10.32;;
25525;SDS011;13424;48.424;11.258;2022-08-06T07:06:04;14.27;;;9.82;;
25525;SDS011;13424;48.424;11.258;2022-08-06T07:08:35;11.98;;;10.77;;
25525;SDS011;13424;48.424;11.258;2022-08-06T07:11:10;11.38;;;9.27;;
25525;SDS011;13424;48.424;11.258;2022-08-06T07:13:48;11.73;;;10.38;;
25525;SDS011;13424;48.424;11.258;2022-08-06T07:16:19;13.90;;;10.60;;
25525;SDS011;13424;48.424;11.258;2022-08-06T07:18:49;16.33;;;11.02;;
25525;SDS011;13424;48.424;11.258;2022-08-06T07:21:19;19.13;;;11.20;;
25525;SDS011;13424;48.424;11.258;2022-08-06T07:23:48;13.75;;;11.30;;
25525;SDS011;13424;48.424;11.258;2022-08-06T07:26:18;13.88;;;11.60;;
25525;SDS011;13424;48.424;11.258;2022-08-06T07:28:46;14.47;;;11.13;;
25525;SDS011;13424;48.424;11.258;2022-08-06T07:31:15;19.40;;;13.40;;
25525;SDS011;13424;48.424;11.258;2022-08-06T07:33:43;17.20;;;12.93;;
25525;SDS011;13424;48.424;11.258;2022-08-06T07:36:14;16.40;;;13.70;;
25525;SDS011;13424;48.424;11.258;2022-08-06T07:38:43;15.48;;;13.75;;
25525;SDS011;13424;48.424;11.258;2022-08-06T07:41:11;20.30;;;14.45;;
25525;SDS011;13424;48.424;11.258;2022-08-06T07:43:43;17.10;;;13.93;;
25525;SDS011;13424;48.424;11.258;2022-08-06T07:46:19;20.63;;;15.35;;
25525;SDS011;13424;48.424;11.258;2022-08-06T07:48:52;20.88;;;14.93;;
25525;SDS011;13424;48.424;11.258;2022-08-06T07:51:23;22.60;;;16.00;;
25525;SDS011;13424;48.424;11.258;2022-08-06T07:53:55;20.27;;;14.38;;
25525;SDS011;13424;48.424;11.258;2022-08-06T07:56:22;20.70;;;17.48;;
25525;SDS011;13424;48.424;11.258;2022-08-06T07:58:49;30.48;;;17.73;;
25525;SDS011;13424;48.424;11.258;2022-08-06T08:01:16;25.10;;;16.88;;
25525;SDS011;13424;48.424;11.258;2022-08-06T08:03:43;26.52;;;17.63;;
25525;SDS011;13424;48.424;11.258;2022-08-06T08:06:27;23.40;;;18.08;;
25525;SDS011;13424;48.424;11.258;2022-08-06T08:09:00;25.90;;;18.88;;
25525;SDS011;13424;48.424;11.258;2022-08-06T08:11:32;26.60;;;18.52;;
25525;SDS011;13424;48.424;11.258;2022-08-06T08:14:07;26.00;;;19.85;;
25525;SDS011;13424;48.424;11.258;2022-08-06T08:16:36;25.75;;;20.63;;
25525;SDS011;13424;48.424;11.258;2022-08-06T08:19:32;28.27;;;20.55;;
25525;SDS011;13424;48.424;11.258;2022-08-06T08:24:39;24.55;;;19.20;;
25525;SDS011;13424;48.424;11.258;2022-08-06T08:27:07;24.83;;;20.60;;
25525;SDS011;13424;48.424;11.258;2022-08-06T08:29:40;29.35;;;19.98;;
25525;SDS011;13424;48.424;11.258;2022-08-06T08:32:08;26.70;;;21.20;;
25525;SDS011;13424;48.424;11.258;2022-08-06T08:34:35;26.00;;;20.27;;
25525;SDS011;13424;48.424;11.258;2022-08-06T08:37:01;22.55;;;19.17;;
25525;SDS011;13424;48.424;11.258;2022-08-06T08:39:28;28.17;;;19.38;;
25525;SDS011;13424;48.424;11.258;2022-08-06T08:42:07;25.77;;;19.95;;
25525;SDS011;13424;48.424;11.258;2022-08-06T08:44:38;28.10;;;21.08;;
25525;SDS011;13424;48.424;11.258;2022-08-06T08:47:05;25.63;;;21.02;;
25525;SDS011;13424;48.424;11.258;2022-08-06T08:49:51;31.48;;;21.90;;
25525;SDS011;13424;48.424;11.258;2022-08-06T08:52:32;29.00;;;20.98;;
25525;SDS011;13424;48.424;11.258;2022-08-06T08:55:06;27.48;;;19.88;;
25525;SDS011;13424;48.424;11.258;2022-08-06T08:57:37;25.48;;;20.13;;
25525;SDS011;13424;48.424;11.258;2022-08-06T09:00:06;24.92;;;20.23;;
25525;SDS011;13424;48.424;11.258;2022-08-06T09:02:33;26.08;;;20.05;;
25525;SDS011;13424;48.424;11.258;2022-08-06T09:05:01;27.48;;;20.30;;
25525;SDS011;13424;48.424;11.258;2022-08-06T09:07:28;23.48;;;19.38;;
25525;SDS011;13424;48.424;11.258;2022-08-06T09:09:54;28.02;;;20.67;;
25525;SDS011;13424;48.424;11.258;2022-08-06T09:12:21;24.83;;;19.42;;
25525;SDS011;13424;48.424;11.258;2022-08-06T09:14:48;25.58;;;20.27;;
25525;SDS011;13424;48.424;11.258;2022-08-06T09:17:15;24.63;;;20.33;;
25525;SDS011;13424;48.424;11.258;2022-08-06T09:19:43;25.58;;;20.88;;
25525;SDS011;13424;48.424;11.258;2022-08-06T09:22:09;26.15;;;19.80;;
25525;SDS011;13424;48.424;11.258;2022-08-06T09:24:36;24.58;;;19.88;;
25525;SDS011;13424;48.424;11.258;2022-08-06T09:29:33;26.83;;;19.90;;
25525;SDS011;13424;48.424;11.258;2022-08-06T09:35:43;24.35;;;19.00;;
25525;SDS011;13424;48.424;11.258;2022-08-06T09:38:27;27.83;;;20.38;;
25525;SDS011;13424;48.424;11.258;2022-08-06T09:41:11;22.88;;;18.90;;
25525;SDS011;13424;48.424;11.258;2022-08-06T09:43:38;21.27;;;17.58;;
25525;SDS011;13424;48.424;11.258;2022-08-06T09:46:05;23.67;;;20.23;;
25525;SDS011;13424;48.424;11.258;2022-08-06T09:48:32;23.13;;;18.75;;
25525;SDS011;13424;48.424;11.258;2022-08-06T09:50:59;23.33;;;20.02;;
25525;SDS011;13424;48.424;11.258;2022-08-06T09:53:27;22.55;;;18.65;;
25525;SDS011;13424;48.424;11.258;2022-08-06T09:55:55;22.17;;;18.52;;
25525;SDS011;13424;48.424;11.258;2022-08-06T09:58:40;23.55;;;20.73;;
25525;SDS011;13424;48.424;11.258;2022-08-06T10:04:36;20.77;;;18.08;;
25525;SDS011;13424;48.424;11.258;2022-08-06T10:07:02;24.02;;;19.95;;
25525;SDS011;13424;48.424;11.258;2022-08-06T10:09:29;21.08;;;17.92;;
25525;SDS011;13424;48.424;11.258;2022-08-06T10:11:58;21.60;;;18.65;;
25525;SDS011;13424;48.424;11.258;2022-08-06T10:14:30;24.73;;;20.42;;
25525;SDS011;13424;48.424;11.258;2022-08-06T10:17:09;22.75;;;19.00;;
25525;SDS011;13424;48.424;11.258;2022-08-06T10:19:38;26.30;;;20.27;;
25525;SDS011;13424;48.424;11.258;2022-08-06T10:22:11;23.17;;;17.98;;
25525;SDS011;13424;48.424;11.258;2022-08-06T10:24:51;26.52;;;20.05;;
25525;SDS011;13424;48.424;11.258;2022-08-06T10:27:21;25.77;;;21.45;;
25525;SDS011;13424;48.424;11.258;2022-08-06T10:29:55;24.88;;;20.45;;
25525;SDS011;13424;48.424;11.258;2022-08-06T10:35:24;21.30;;;19.10;;
25525;SDS011;13424;48.424;11.258;2022-08-06T10:37:55;23.35;;;18.25;;
25525;SDS011;13424;48.424;11.258;2022-08-06T10:40:26;22.98;;;19.55;;
25525;SDS011;13424;48.424;11.258;2022-08-06T10:42:53;23.45;;;19.90;;
25525;SDS011;13424;48.424;11.258;2022-08-06T10:45:20;24.92;;;17.95;;
25525;SDS011;13424;48.424;11.258;2022-08-06T10:47:47;20.02;;;18.02;;
25525;SDS011;13424;48.424;11.258;2022-08-06T10:50:13;22.17;;;18.20;;
25525;SDS011;13424;48.424;11.258;2022-08-06T10:52:41;18.63;;;16.80;;
25525;SDS011;13424;48.424;11.258;2022-08-06T10:55:09;21.25;;;18.15;;
25525;SDS011;13424;48.424;11.258;2022-08-06T10:57:38;19.23;;;16.13;;
25525;SDS011;13424;48.424;11.258;2022-08-06T11:00:08;21.10;;;16.05;;
25525;SDS011;13424;48.424;11.258;2022-08-06T11:16:02;17.00;;;14.40;;
25525;SDS011;13424;48.424;11.258;2022-08-06T11:18:29;15.35;;;13.82;;
25525;SDS011;13424;48.424;11.258;2022-08-06T11:20:55;16.52;;;14.73;;
25525;SDS011;13424;48.424;11.258;2022-08-06T11:23:30;17.77;;;14.68;;
25525;SDS011;13424;48.424;11.258;2022-08-06T11:26:03;17.63;;;14.48;;
25525;SDS011;13424;48.424;11.258;2022-08-06T11:30:58;15.32;;;13.68;;
25525;SDS011;13424;48.424;11.258;2022-08-06T11:36:00;16.73;;;14.32;;
25525;SDS011;13424;48.424;11.258;2022-08-06T11:41:17;15.55;;;13.73;;
25525;SDS011;13424;48.424;11.258;2022-08-06T11:46:36;14.55;;;13.05;;
25525;SDS011;13424;48.424;11.258;2022-08-06T11:51:54;14.35;;;12.77;;
25525;SDS011;13424;48.424;11.258;2022-08-06T11:54:33;14.65;;;12.77;;
25525;SDS011;13424;48.424;11.258;2022-08-06T12:05:06;14.55;;;11.43;;
25525;SDS011;13424;48.424;11.258;2022-08-06T12:07:39;11.85;;;10.73;;
25525;SDS011;13424;48.424;11.258;2022-08-06T12:10:10;11.60;;;10.50;;
25525;SDS011;13424;48.424;11.258;2022-08-06T12:12:45;12.73;;;11.52;;
25525;SDS011;13424;48.424;11.258;2022-08-06T12:17:56;11.25;;;10.05;;
25525;SDS011;13424;48.424;11.258;2022-08-06T12:20:33;11.40;;;10.32;;
25525;SDS011;13424;48.424;11.258;2022-08-06T12:23:02;10.52;;;9.63;;
25525;SDS011;13424;48.424;11.258;2022-08-06T12:25:34;10.30;;;9.40;;
25525;SDS011;13424;48.424;11.258;2022-08-06T12:28:07;10.15;;;9.15;;
25525;SDS011;13424;48.424;11.258;2022-08-06T12:30:45;10.18;;;9.02;;
25525;SDS011;13424;48.424;11.258;2022-08-06T12:33:14;8.68;;;7.88;;
25525;SDS011;13424;48.424;11.258;2022-08-06T12:40:13;9.00;;;8.10;;
25525;SDS011;13424;48.424;11.258;2022-08-06T12:45:28;7.32;;;6.28;;
25525;SDS011;13424;48.424;11.258;2022-08-06T12:48:02;8.23;;;6.70;;
25525;SDS011;13424;48.424;11.258;2022-08-06T12:50:32;7.55;;;6.75;;
25525;SDS011;13424;48.424;11.258;2022-08-06T12:53:12;7.45;;;6.85;;
25525;SDS011;13424;48.424;11.258;2022-08-06T12:55:54;6.82;;;6.10;;
25525;SDS011;13424;48.424;11.258;2022-08-06T12:58:23;7.47;;;6.32;;
25525;SDS011;13424;48.424;11.258;2022-08-06T13:01:00;6.70;;;6.10;;
25525;SDS011;13424;48.424;11.258;2022-08-06T13:03:28;6.22;;;5.72;;
25525;SDS011;13424;48.424;11.258;2022-08-06T13:06:00;7.85;;;6.40;;
25525;SDS011;13424;48.424;11.258;2022-08-06T13:08:29;7.22;;;6.53;;
25525;SDS011;13424;48.424;11.258;2022-08-06T13:10:57;7.20;;;6.50;;
25525;SDS011;13424;48.424;11.258;2022-08-06T13:13:40;6.75;;;6.15;;
25525;SDS011;13424;48.424;11.258;2022-08-06T13:16:12;6.22;;;5.63;;
25525;SDS011;13424;48.424;11.258;2022-08-06T13:18:42;7.18;;;6.32;;
25525;SDS011;13424;48.424;11.258;2022-08-06T13:21:30;6.57;;;5.65;;
25525;SDS011;13424;48.424;11.258;2022-08-06T13:23:56;6.30;;;5.70;;
25525;SDS011;13424;48.424;11.258;2022-08-06T13:26:24;6.68;;;5.97;;
25525;SDS011;13424;48.424;11.258;2022-08-06T13:29:15;6.97;;;6.38;;
25525;SDS011;13424;48.424;11.258;2022-08-06T13:32:06;7.32;;;6.63;;
25525;SDS011;13424;48.424;11.258;2022-08-06T13:34:45;6.53;;;5.93;;
25525;SDS011;13424;48.424;11.258;2022-08-06T13:37:17;9.52;;;6.50;;
25525;SDS011;13424;48.424;11.258;2022-08-06T13:40:17;6.53;;;5.93;;
25525;SDS011;13424;48.424;11.258;2022-08-06T13:42:56;6.65;;;5.88;;
25525;SDS011;13424;48.424;11.258;2022-08-06T13:45:25;7.93;;;6.15;;
25525;SDS011;13424;48.424;11.258;2022-08-06T13:48:09;6.53;;;5.88;;
25525;SDS011;13424;48.424;11.258;2022-08-06T13:50:42;6.10;;;5.53;;
25525;SDS011;13424;48.424;11.258;2022-08-06T13:53:11;7.03;;;6.07;;
25525;SDS011;13424;48.424;11.258;2022-08-06T13:55:38;7.65;;;5.63;;
25525;SDS011;13424;48.424;11.258;2022-08-06T13:58:08;7.93;;;6.07;;
25525;SDS011;13424;48.424;11.258;2022-08-06T14:00:35;7.40;;;6.20;;
25525;SDS011;13424;48.424;11.258;2022-08-06T14:03:03;7.00;;;5.68;;
25525;SDS011;13424;48.424;11.258;2022-08-06T14:05:29;8.15;;;7.13;;
25525;SDS011;13424;48.424;11.258;2022-08-06T14:07:55;6.50;;;5.90;;
25525;SDS011;13424;48.424;11.258;2022-08-06T14:10:21;6.75;;;6.15;;
25525;SDS011;13424;48.424;11.258;2022-08-06T14:12:48;6.22;;;5.63;;
25525;SDS011;13424;48.424;11.258;2022-08-06T14:15:33;6.85;;;6.32;;
25525;SDS011;13424;48.424;11.258;2022-08-06T14:18:00;7.47;;;6.72;;
25525;SDS011;13424;48.424;11.258;2022-08-06T14:20:27;6.25;;;5.65;;
25525;SDS011;13424;48.424;11.258;2022-08-06T14:22:53;7.88;;;6.50;;
25525;SDS011;13424;48.424;11.258;2022-08-06T14:25:20;8.35;;;6.43;;
25525;SDS011;13424;48.424;11.258;2022-08-06T14:27:49;6.68;;;6.07;;
25525;SDS011;13424;48.424;11.258;2022-08-06T14:30:16;9.20;;;6.53;;
25525;SDS011;13424;48.424;11.258;2022-08-06T14:32:44;7.88;;;5.78;;
25525;SDS011;13424;48.424;11.258;2022-08-06T14:35:10;6.97;;;5.85;;
25525;SDS011;13424;48.424;11.258;2022-08-06T14:37:38;7.18;;;6.47;;
25525;SDS011;13424;48.424;11.258;2022-08-06T14:40:08;7.85;;;6.85;;
25525;SDS011;13424;48.424;11.258;2022-08-06T14:42:36;7.10;;;6.40;;
25525;SDS011;13424;48.424;11.258;2022-08-06T14:45:21;6.63;;;6.00;;
25525;SDS011;13424;48.424;11.258;2022-08-06T14:47:47;6.53;;;6.00;;
25525;SDS011;13424;48.424;11.258;2022-08-06T14:50:14;6.65;;;5.90;;
25525;SDS011;13424;48.424;11.258;2022-08-06T14:52:41;6.10;;;5.40;;
25525;SDS011;13424;48.424;11.258;2022-08-06T14:55:08;6.32;;;5.80;;
25525;SDS011;13424;48.424;11.258;2022-08-06T14:57:35;7.90;;;6.75;;
25525;SDS011;13424;48.424;11.258;2022-08-06T15:00:06;8.32;;;6.68;;
25525;SDS011;13424;48.424;11.258;2022-08-06T15:02:34;6.65;;;6.05;;
25525;SDS011;13424;48.424;11.258;2022-08-06T15:04:59;7.28;;;6.50;;
25525;SDS011;13424;48.424;11.258;2022-08-06T15:07:25;6.88;;;6.25;;
25525;SDS011;13424;48.424;11.258;2022-08-06T15:09:52;6.65;;;6.05;;
25525;SDS011;13424;48.424;11.258;2022-08-06T15:12:19;7.00;;;6.38;;
25525;SDS011;13424;48.424;11.258;2022-08-06T15:14:45;6.78;;;6.03;;
25525;SDS011;13424;48.424;11.258;2022-08-06T15:17:11;6.18;;;5.60;;
25525;SDS011;13424;48.424;11.258;2022-08-06T15:19:37;6.07;;;5.57;;
25525;SDS011;13424;48.424;11.258;2022-08-06T15:25:10;5.57;;;4.97;;
25525;SDS011;13424;48.424;11.258;2022-08-06T15:27:36;6.70;;;6.00;;
25525;SDS011;13424;48.424;11.258;2022-08-06T15:30:03;6.05;;;5.57;;
25525;SDS011;13424;48.424;11.258;2022-08-06T15:32:29;6.78;;;6.03;;
25525;SDS011;13424;48.424;11.258;2022-08-06T15:34:55;6.68;;;5.65;;
25525;SDS011;13424;48.424;11.258;2022-08-06T15:40:56;6.75;;;5.10;;
25525;SDS011;13424;48.424;11.258;2022-08-06T15:43:22;5.75;;;5.28;;
25525;SDS011;13424;48.424;11.258;2022-08-06T15:45:52;6.07;;;5.47;;
25525;SDS011;13424;48.424;11.258;2022-08-06T15:48:19;5.13;;;4.55;;
25525;SDS011;13424;48.424;11.258;2022-08-06T15:50:47;5.50;;;5.00;;
25525;SDS011;13424;48.424;11.258;2022-08-06T15:53:13;5.55;;;5.05;;
25525;SDS011;13424;48.424;11.258;2022-08-06T15:55:40;6.35;;;4.97;;
25525;SDS011;13424;48.424;11.258;2022-08-06T15:58:06;5.72;;;5.20;;
25525;SDS011;13424;48.424;11.258;2022-08-06T16:00:33;5.18;;;4.78;;
25525;SDS011;13424;48.424;11.258;2022-08-06T16:03:04;5.88;;;5.15;;
25525;SDS011;13424;48.424;11.258;2022-08-06T16:05:31;6.03;;;5.43;;
25525;SDS011;13424;48.424;11.258;2022-08-06T16:07:57;6.13;;;5.53;;
25525;SDS011;13424;48.424;11.258;2022-08-06T16:10:23;4.95;;;4.55;;
25525;SDS011;13424;48.424;11.258;2022-08-06T16:12:51;5.75;;;5.25;;
25525;SDS011;13424;48.424;11.258;2022-08-06T16:15:17;5.82;;;5.30;;
25525;SDS011;13424;48.424;11.258;2022-08-06T16:17:44;5.78;;;5.28;;
25525;SDS011;13424;48.424;11.258;2022-08-06T16:20:10;6.55;;;5.43;;
25525;SDS011;13424;48.424;11.258;2022-08-06T16:22:39;6.30;;;5.70;;
25525;SDS011;13424;48.424;11.258;2022-08-06T16:25:06;6.07;;;5.00;;
25525;SDS011;13424;48.424;11.258;2022-08-06T16:27:32;5.57;;;5.13;;
25525;SDS011;13424;48.424;11.258;2022-08-06T16:29:58;6.50;;;5.10;;
25525;SDS011;13424;48.424;11.258;2022-08-06T16:32:24;5.00;;;4.70;;
25525;SDS011;13424;48.424;11.258;2022-08-06T16:34:51;5.90;;;5.40;;
25525;SDS011;13424;48.424;11.258;2022-08-06T16:37:23;6.47;;;5.00;;
25525;SDS011;13424;48.424;11.258;2022-08-06T16:39:53;6.10;;;4.85;;
25525;SDS011;13424;48.424;11.258;2022-08-06T16:46:19;5.68;;;5.18;;
25525;SDS011;13424;48.424;11.258;2022-08-06T16:48:45;4.53;;;4.13;;
25525;SDS011;13424;48.424;11.258;2022-08-06T16:51:11;4.72;;;4.32;;
25525;SDS011;13424;48.424;11.258;2022-08-06T16:53:41;4.97;;;4.22;;
25525;SDS011;13424;48.424;11.258;2022-08-06T16:56:07;5.95;;;5.43;;